sensor_id;sensor_type;location;lat;lon;timestamp;pressure;altitude;pressure_sealevel;temperature;humidity
48553;BME280;34335;51.566;6.994;2023-01-30T00:01:31;101280.63;;;1.89;100.00
48553;BME280;34335;51.566;6.994;2023-01-30T00:03:57;101310.81;;;1.94;100.00
48553;BME280;34335;51.566;6.994;2023-01-30T00:06:22;101284.63;;;2.01;100.00
48553;BME280;34335;51.566;6.994;2023-01-30T00:08:48;101280.97;;;1.96;100.00
48553;BME280;34335;51.566;6.994;2023-01-30T00:11:14;101271.72;;;2.00;100.00
48553;BME280;34335;51.566;6.994;2023-01-30T00:13:40;101269.97;;;1.99;100.00
48553;BME280;34335;51.566;6.994;2023-01-30T00:16:07;101259.78;;;2.00;100.00
48553;BME280;34335;51.566;6.994;2023-01-30T00:18:37;101254.03;;;2.06;100.00
48553;BME280;34335;51.566;6.994;2023-01-30T00:21:04;101253.09;;;2.04;100.00
48553;BME280;34335;51.566;6.994;2023-01-30T00:23:31;101238.66;;;2.06;100.00
48553;BME280;34335;51.566;6.994;2023-01-30T00:25:57;101248.22;;;2.10;100.00
48553;BME280;34335;51.566;6.994;2023-01-30T00:28:22;101240.75;;;2.16;100.00
48553;BME280;34335;51.566;6.994;2023-01-30T00:30:52;101233.81;;;2.14;100.00
48553;BME280;34335;51.566;6.994;2023-01-30T00:33:19;101216.81;;;2.16;100.00
48553;BME280;34335;51.566;6.994;2023-01-30T00:35:45;101225.50;;;2.20;100.00
48553;BME280;34335;51.566;6.994;2023-01-30T00:38:12;101207.91;;;2.29;100.00
48553;BME280;34335;51.566;6.994;2023-01-30T00:40:37;101214.81;;;2.30;100.00
48553;BME280;34335;51.566;6.994;2023-01-30T00:43:03;101196.69;;;2.27;100.00
48553;BME280;34335;51.566;6.994;2023-01-30T00:45:47;101202.09;;;2.33;100.00
48553;BME280;34335;51.566;6.994;2023-01-30T00:48:32;101187.66;;;2.35;100.00
48553;BME280;34335;51.566;6.994;2023-01-30T00:50:57;101189.28;;;2.33;100.00
48553;BME280;34335;51.566;6.994;2023-01-30T00:53:23;101194.59;;;2.38;100.00
48553;BME280;34335;51.566;6.994;2023-01-30T00:55:52;101172.44;;;2.40;100.00
48553;BME280;34335;51.566;6.994;2023-01-30T00:58:18;101175.06;;;2.41;100.00
48553;BME280;34335;51.566;6.994;2023-01-30T01:00:43;101179.59;;;2.48;100.00
48553;BME280;34335;51.566;6.994;2023-01-30T01:03:09;101180.41;;;2.47;100.00
48553;BME280;34335;51.566;6.994;2023-01-30T01:05:34;101170.06;;;2.44;100.00
48553;BME280;34335;51.566;6.994;2023-01-30T01:08:00;101154.88;;;2.51;100.00
48553;BME280;34335;51.566;6.994;2023-01-30T01:10:26;101148.88;;;2.50;100.00
48553;BME280;34335;51.566;6.994;2023-01-30T01:12:51;101166.63;;;2.45;100.00
48553;BME280;34335;51.566;6.994;2023-01-30T01:15:17;101147.84;;;2.46;100.00
48553;BME280;34335;51.566;6.994;2023-01-30T01:17:42;101142.63;;;2.43;100.00
48553;BME280;34335;51.566;6.994;2023-01-30T01:20:08;101145.00;;;2.39;100.00
48553;BME280;34335;51.566;6.994;2023-01-30T01:22:34;101153.81;;;2.45;100.00
48553;BME280;34335;51.566;6.994;2023-01-30T01:24:59;101148.63;;;2.44;100.00
48553;BME280;34335;51.566;6.994;2023-01-30T01:27:25;101135.09;;;2.48;100.00
48553;BME280;34335;51.566;6.994;2023-01-30T01:29:50;101121.53;;;2.52;100.00
48553;BME280;34335;51.566;6.994;2023-01-30T01:32:15;101120.50;;;2.47;100.00
48553;BME280;34335;51.566;6.994;2023-01-30T01:34:40;101137.84;;;2.53;100.00
48553;BME280;34335;51.566;6.994;2023-01-30T01:37:07;101146.50;;;2.55;100.00
48553;BME280;34335;51.566;6.994;2023-01-30T01:39:32;101129.50;;;2.58;100.00
48553;BME280;34335;51.566;6.994;2023-01-30T01:42:17;101130.25;;;2.56;100.00
48553;BME280;34335;51.566;6.994;2023-01-30T01:47:27;101128.69;;;2.59;100.00
48553;BME280;34335;51.566;6.994;2023-01-30T01:49:52;101116.03;;;2.64;100.00
48553;BME280;34335;51.566;6.994;2023-01-30T01:52:18;101115.31;;;2.68;100.00
48553;BME280;34335;51.566;6.994;2023-01-30T01:54:51;101120.44;;;2.68;100.00
48553;BME280;34335;51.566;6.994;2023-01-30T01:57:19;101117.28;;;2.75;100.00
48553;BME280;34335;51.566;6.994;2023-01-30T02:00:14;101101.59;;;2.68;100.00
48553;BME280;34335;51.566;6.994;2023-01-30T02:02:42;101108.41;;;2.67;100.00
48553;BME280;34335;51.566;6.994;2023-01-30T02:05:09;101071.94;;;2.76;100.00
48553;BME280;34335;51.566;6.994;2023-01-30T02:10:20;101090.13;;;2.82;100.00
48553;BME280;34335;51.566;6.994;2023-01-30T02:12:47;101087.66;;;2.84;100.00
48553;BME280;34335;51.566;6.994;2023-01-30T02:15:13;101086.97;;;2.89;100.00
48553;BME280;34335;51.566;6.994;2023-01-30T02:17:38;101076.66;;;2.88;100.00
48553;BME280;34335;51.566;6.994;2023-01-30T02:20:10;101068.16;;;2.90;100.00
48553;BME280;34335;51.566;6.994;2023-01-30T02:23:03;101049.31;;;2.90;100.00
48553;BME280;34335;51.566;6.994;2023-01-30T02:25:52;101044.31;;;2.93;100.00
48553;BME280;34335;51.566;6.994;2023-01-30T02:28:51;101047.19;;;3.02;100.00
48553;BME280;34335;51.566;6.994;2023-01-30T02:31:34;101024.78;;;2.98;100.00
48553;BME280;34335;51.566;6.994;2023-01-30T02:36:50;101044.13;;;3.13;100.00
48553;BME280;34335;51.566;6.994;2023-01-30T02:42:10;101037.81;;;3.28;100.00
48553;BME280;34335;51.566;6.994;2023-01-30T02:45:05;101027.50;;;3.28;100.00
48553;BME280;34335;51.566;6.994;2023-01-30T02:47:46;101033.72;;;3.34;100.00
48553;BME280;34335;51.566;6.994;2023-01-30T02:50:45;101023.50;;;3.37;100.00
48553;BME280;34335;51.566;6.994;2023-01-30T02:53:13;101020.19;;;3.39;100.00
48553;BME280;34335;51.566;6.994;2023-01-30T02:55:41;101020.19;;;3.39;100.00
48553;BME280;34335;51.566;6.994;2023-01-30T02:58:06;101018.31;;;3.35;100.00
48553;BME280;34335;51.566;6.994;2023-01-30T03:09:19;100993.88;;;3.48;100.00
48553;BME280;34335;51.566;6.994;2023-01-30T03:12:07;100992.22;;;3.49;100.00
48553;BME280;34335;51.566;6.994;2023-01-30T03:14:47;100992.38;;;3.55;100.00
48553;BME280;34335;51.566;6.994;2023-01-30T03:17:16;100973.56;;;3.56;100.00
48553;BME280;34335;51.566;6.994;2023-01-30T03:19:42;100972.00;;;3.61;100.00
48553;BME280;34335;51.566;6.994;2023-01-30T03:22:08;100973.81;;;3.64;100.00
48553;BME280;34335;51.566;6.994;2023-01-30T03:24:39;100966.78;;;3.58;100.00
48553;BME280;34335;51.566;6.994;2023-01-30T03:27:07;100962.59;;;3.62;100.00
48553;BME280;34335;51.566;6.994;2023-01-30T03:29:34;100968.59;;;3.62;100.00
48553;BME280;34335;51.566;6.994;2023-01-30T03:31:59;100975.63;;;3.66;100.00
48553;BME280;34335;51.566;6.994;2023-01-30T03:34:25;100961.03;;;3.67;100.00
48553;BME280;34335;51.566;6.994;2023-01-30T03:36:50;100969.69;;;3.69;100.00
48553;BME280;34335;51.566;6.994;2023-01-30T03:39:16;100963.75;;;3.71;100.00
48553;BME280;34335;51.566;6.994;2023-01-30T03:41:42;100958.47;;;3.67;100.00
48553;BME280;34335;51.566;6.994;2023-01-30T03:44:08;100956.69;;;3.64;100.00
48553;BME280;34335;51.566;6.994;2023-01-30T03:46:34;100944.72;;;3.65;100.00
48553;BME280;34335;51.566;6.994;2023-01-30T03:48:59;100949.06;;;3.67;100.00
48553;BME280;34335;51.566;6.994;2023-01-30T03:51:24;100937.22;;;3.72;100.00
48553;BME280;34335;51.566;6.994;2023-01-30T03:53:50;100930.16;;;3.67;100.00
48553;BME280;34335;51.566;6.994;2023-01-30T03:56:15;100938.03;;;3.71;100.00
48553;BME280;34335;51.566;6.994;2023-01-30T03:58:40;100920.91;;;3.72;100.00
48553;BME280;34335;51.566;6.994;2023-01-30T04:01:05;100921.72;;;3.71;100.00
48553;BME280;34335;51.566;6.994;2023-01-30T04:03:32;100933.63;;;3.67;100.00
48553;BME280;34335;51.566;6.994;2023-01-30T04:05:58;100930.25;;;3.68;100.00
48553;BME280;34335;51.566;6.994;2023-01-30T04:08:23;100924.16;;;3.66;100.00
48553;BME280;34335;51.566;6.994;2023-01-30T04:10:49;100927.56;;;3.65;100.00
48553;BME280;34335;51.566;6.994;2023-01-30T04:13:14;100926.78;;;3.68;100.00
48553;BME280;34335;51.566;6.994;2023-01-30T04:15:39;100916.44;;;3.66;100.00
48553;BME280;34335;51.566;6.994;2023-01-30T04:18:04;100917.41;;;3.70;100.00
48553;BME280;34335;51.566;6.994;2023-01-30T04:20:30;100923.41;;;3.70;100.00
48553;BME280;34335;51.566;6.994;2023-01-30T04:22:55;100919.06;;;3.68;100.00
48553;BME280;34335;51.566;6.994;2023-01-30T04:25:23;100914.69;;;3.65;100.00
48553;BME280;34335;51.566;6.994;2023-01-30T04:27:49;100901.94;;;3.68;100.00
48553;BME280;34335;51.566;6.994;2023-01-30T04:30:16;100911.47;;;3.72;100.00
48553;BME280;34335;51.566;6.994;2023-01-30T04:32:42;100910.66;;;3.73;100.00
48553;BME280;34335;51.566;6.994;2023-01-30T04:35:08;100891.03;;;3.77;100.00
48553;BME280;34335;51.566;6.994;2023-01-30T04:37:35;100900.47;;;3.77;100.00
48553;BME280;34335;51.566;6.994;2023-01-30T04:40:01;100914.19;;;3.77;100.00
48553;BME280;34335;51.566;6.994;2023-01-30T04:42:27;100900.47;;;3.77;100.00
48553;BME280;34335;51.566;6.994;2023-01-30T04:44:54;100903.03;;;3.77;100.00
48553;BME280;34335;51.566;6.994;2023-01-30T04:47:20;100913.31;;;3.75;100.00
48553;BME280;34335;51.566;6.994;2023-01-30T04:49:46;100913.34;;;3.77;100.00
48553;BME280;34335;51.566;6.994;2023-01-30T04:52:11;100905.63;;;3.77;100.00
48553;BME280;34335;51.566;6.994;2023-01-30T04:54:36;100906.47;;;3.77;100.00
48553;BME280;34335;51.566;6.994;2023-01-30T04:57:01;100900.44;;;3.75;100.00
48553;BME280;34335;51.566;6.994;2023-01-30T04:59:27;100900.44;;;3.75;100.00
48553;BME280;34335;51.566;6.994;2023-01-30T05:01:53;100898.84;;;3.80;100.00
48553;BME280;34335;51.566;6.994;2023-01-30T05:04:18;100889.50;;;3.82;100.00
48553;BME280;34335;51.566;6.994;2023-01-30T05:06:44;100886.84;;;3.81;100.00
48553;BME280;34335;51.566;6.994;2023-01-30T05:09:09;100888.81;;;3.88;100.00
48553;BME280;34335;51.566;6.994;2023-01-30T05:11:34;100886.38;;;3.93;100.00
48553;BME280;34335;51.566;6.994;2023-01-30T05:14:00;100881.97;;;3.90;100.00
48553;BME280;34335;51.566;6.994;2023-01-30T05:16:25;100871.75;;;3.92;100.00
48553;BME280;34335;51.566;6.994;2023-01-30T05:18:51;100894.97;;;3.95;100.00
48553;BME280;34335;51.566;6.994;2023-01-30T05:21:19;100879.63;;;3.98;100.00
48553;BME280;34335;51.566;6.994;2023-01-30T05:23:45;100878.00;;;4.01;100.00
48553;BME280;34335;51.566;6.994;2023-01-30T05:26:11;100884.91;;;4.02;100.00
48553;BME280;34335;51.566;6.994;2023-01-30T05:28:37;100874.88;;;4.12;100.00
48553;BME280;34335;51.566;6.994;2023-01-30T05:31:05;100880.03;;;4.12;100.00
48553;BME280;34335;51.566;6.994;2023-01-30T05:33:30;100872.31;;;4.12;100.00
48553;BME280;34335;51.566;6.994;2023-01-30T05:35:56;100863.66;;;4.10;100.00
48553;BME280;34335;51.566;6.994;2023-01-30T05:38:22;100863.75;;;4.13;100.00
48553;BME280;34335;51.566;6.994;2023-01-30T05:41:00;100870.69;;;4.15;100.00
48553;BME280;34335;51.566;6.994;2023-01-30T05:43:26;100867.41;;;4.21;100.00
48553;BME280;34335;51.566;6.994;2023-01-30T05:45:53;100863.06;;;4.18;100.00
48553;BME280;34335;51.566;6.994;2023-01-30T05:48:18;100871.06;;;4.29;100.00
48553;BME280;34335;51.566;6.994;2023-01-30T05:50:44;100854.78;;;4.30;100.00
48553;BME280;34335;51.566;6.994;2023-01-30T05:53:09;100878.06;;;4.33;100.00
48553;BME280;34335;51.566;6.994;2023-01-30T05:55:34;100866.09;;;4.35;100.00
48553;BME280;34335;51.566;6.994;2023-01-30T05:58:00;100879.00;;;4.37;100.00
48553;BME280;34335;51.566;6.994;2023-01-30T06:00:25;100870.34;;;4.33;100.00
48553;BME280;34335;51.566;6.994;2023-01-30T06:02:50;100886.00;;;4.41;100.00
48553;BME280;34335;51.566;6.994;2023-01-30T06:05:16;100884.31;;;4.43;100.00
48553;BME280;34335;51.566;6.994;2023-01-30T06:07:41;100899.84;;;4.46;100.00
48553;BME280;34335;51.566;6.994;2023-01-30T06:10:06;100894.59;;;4.42;100.00
48553;BME280;34335;51.566;6.994;2023-01-30T06:12:32;100891.47;;;4.53;100.00
48553;BME280;34335;51.566;6.994;2023-01-30T06:14:57;100869.53;;;4.68;100.00
48553;BME280;34335;51.566;6.994;2023-01-30T06:17:22;100885.78;;;4.65;100.00
48553;BME280;34335;51.566;6.994;2023-01-30T06:19:48;100877.94;;;4.61;100.00
48553;BME280;34335;51.566;6.994;2023-01-30T06:22:13;100882.31;;;4.65;100.00
48553;BME280;34335;51.566;6.994;2023-01-30T06:24:38;100874.72;;;4.70;100.00
48553;BME280;34335;51.566;6.994;2023-01-30T06:27:03;100874.81;;;4.74;100.00
48553;BME280;34335;51.566;6.994;2023-01-30T06:29:29;100886.75;;;4.71;100.00
48553;BME280;34335;51.566;6.994;2023-01-30T06:31:54;100894.59;;;4.74;100.00
48553;BME280;34335;51.566;6.994;2023-01-30T06:34:19;100902.44;;;4.78;100.00
48553;BME280;34335;51.566;6.994;2023-01-30T06:36:45;100890.50;;;4.82;100.00
48553;BME280;34335;51.566;6.994;2023-01-30T06:39:11;100890.38;;;4.77;100.00
48553;BME280;34335;51.566;6.994;2023-01-30T06:41:36;100891.91;;;4.71;100.00
48553;BME280;34335;51.566;6.994;2023-01-30T06:44:02;100901.47;;;4.75;100.00
48553;BME280;34335;51.566;6.994;2023-01-30T06:46:27;100908.69;;;4.88;100.00
48553;BME280;34335;51.566;6.994;2023-01-30T06:48:52;100902.44;;;4.78;100.00
48553;BME280;34335;51.566;6.994;2023-01-30T06:51:17;100901.88;;;4.90;100.00
48553;BME280;34335;51.566;6.994;2023-01-30T06:53:43;100893.22;;;4.88;100.00
48553;BME280;34335;51.566;6.994;2023-01-30T06:56:08;100902.84;;;4.95;100.00
48553;BME280;34335;51.566;6.994;2023-01-30T06:58:33;100913.22;;;4.98;100.00
48553;BME280;34335;51.566;6.994;2023-01-30T07:04:11;100901.75;;;4.86;100.00
48553;BME280;34335;51.566;6.994;2023-01-30T07:06:36;100911.53;;;4.99;100.00
48553;BME280;34335;51.566;6.994;2023-01-30T07:09:02;100904.59;;;4.96;100.00
48553;BME280;34335;51.566;6.994;2023-01-30T07:11:27;100912.63;;;5.09;100.00
48553;BME280;34335;51.566;6.994;2023-01-30T07:13:52;100900.66;;;5.11;100.00
48553;BME280;34335;51.566;6.994;2023-01-30T07:16:18;100891.06;;;5.05;100.00
48553;BME280;34335;51.566;6.994;2023-01-30T07:18:43;100898.69;;;5.01;100.00
48553;BME280;34335;51.566;6.994;2023-01-30T07:21:09;100901.19;;;4.97;100.00
48553;BME280;34335;51.566;6.994;2023-01-30T07:23:34;100908.16;;;5.02;100.00
48553;BME280;34335;51.566;6.994;2023-01-30T07:26:04;100924.38;;;4.97;100.00
48553;BME280;34335;51.566;6.994;2023-01-30T07:28:29;100919.31;;;5.01;100.00
48553;BME280;34335;51.566;6.994;2023-01-30T07:41:08;100952.59;;;4.93;100.00
48553;BME280;34335;51.566;6.994;2023-01-30T07:43:33;100969.78;;;4.92;100.00
48553;BME280;34335;51.566;6.994;2023-01-30T07:45:59;100951.66;;;4.89;100.00
48553;BME280;34335;51.566;6.994;2023-01-30T07:48:24;100956.91;;;4.92;100.00
48553;BME280;34335;51.566;6.994;2023-01-30T07:50:49;100945.69;;;4.90;100.00
48553;BME280;34335;51.566;6.994;2023-01-30T07:53:16;100946.66;;;4.95;100.00
48553;BME280;34335;51.566;6.994;2023-01-30T07:55:43;100958.56;;;4.90;100.00
48553;BME280;34335;51.566;6.994;2023-01-30T07:58:12;100955.97;;;4.89;100.00
48553;BME280;34335;51.566;6.994;2023-01-30T08:00:37;100961.97;;;4.89;100.00
48553;BME280;34335;51.566;6.994;2023-01-30T08:03:03;100954.47;;;4.98;100.00
48553;BME280;34335;51.566;6.994;2023-01-30T08:05:28;100964.09;;;5.06;100.00
48553;BME280;34335;51.566;6.994;2023-01-30T08:07:56;100963.13;;;5.01;100.00
48553;BME280;34335;51.566;6.994;2023-01-30T08:10:22;100968.28;;;5.01;100.00
48553;BME280;34335;51.566;6.994;2023-01-30T08:12:49;100956.81;;;5.23;100.00
48553;BME280;34335;51.566;6.994;2023-01-30T08:15:15;100969.34;;;5.09;100.00
48553;BME280;34335;51.566;6.994;2023-01-30T08:17:40;100965.00;;;5.06;100.00
48553;BME280;34335;51.566;6.994;2023-01-30T08:20:06;100968.38;;;5.04;100.00
48553;BME280;34335;51.566;6.994;2023-01-30T08:22:32;100973.47;;;5.02;100.00
48553;BME280;34335;51.566;6.994;2023-01-30T08:24:57;100976.09;;;5.04;100.00
48553;BME280;34335;51.566;6.994;2023-01-30T08:27:22;100991.56;;;5.04;100.00
48553;BME280;34335;51.566;6.994;2023-01-30T08:29:48;100983.88;;;5.05;100.00
48553;BME280;34335;51.566;6.994;2023-01-30T08:32:13;100987.38;;;5.07;100.00
48553;BME280;34335;51.566;6.994;2023-01-30T08:34:38;100996.84;;;5.08;100.00
48553;BME280;34335;51.566;6.994;2023-01-30T08:37:04;100996.91;;;5.11;100.00
48553;BME280;34335;51.566;6.994;2023-01-30T08:39:29;100997.56;;;5.03;100.00
48553;BME280;34335;51.566;6.994;2023-01-30T08:41:54;100995.91;;;5.05;100.00
48553;BME280;34335;51.566;6.994;2023-01-30T08:44:20;101005.34;;;5.06;100.00
48553;BME280;34335;51.566;6.994;2023-01-30T08:46:45;100994.41;;;5.14;100.00
48553;BME280;34335;51.566;6.994;2023-01-30T08:49:10;100998.72;;;5.14;100.00
48553;BME280;34335;51.566;6.994;2023-01-30T08:51:36;100996.88;;;5.10;100.00
48553;BME280;34335;51.566;6.994;2023-01-30T08:54:01;100993.47;;;5.11;100.00
48553;BME280;34335;51.566;6.994;2023-01-30T08:56:27;101002.03;;;5.10;100.00
48553;BME280;34335;51.566;6.994;2023-01-30T08:58:52;101010.72;;;5.13;100.00
48553;BME280;34335;51.566;6.994;2023-01-30T09:01:17;101016.78;;;5.15;100.00
48553;BME280;34335;51.566;6.994;2023-01-30T09:03:43;101010.72;;;5.13;100.00
48553;BME280;34335;51.566;6.994;2023-01-30T09:06:08;101012.59;;;5.19;100.00
48553;BME280;34335;51.566;6.994;2023-01-30T09:08:34;101016.00;;;5.18;100.00
48553;BME280;34335;51.566;6.994;2023-01-30T09:11:00;101016.16;;;5.24;100.00
48553;BME280;34335;51.566;6.994;2023-01-30T09:13:26;101016.00;;;5.18;100.00
48553;BME280;34335;51.566;6.994;2023-01-30T09:15:52;101020.31;;;5.19;100.00
48553;BME280;34335;51.566;6.994;2023-01-30T09:18:17;101020.34;;;5.21;100.00
48553;BME280;34335;51.566;6.994;2023-01-30T09:20:43;101023.84;;;5.23;100.00
48553;BME280;34335;51.566;6.994;2023-01-30T09:23:08;101007.53;;;5.22;100.00
48553;BME280;34335;51.566;6.994;2023-01-30T09:25:33;101014.50;;;5.26;100.00
48553;BME280;34335;51.566;6.994;2023-01-30T09:27:58;101021.31;;;5.24;100.00
48553;BME280;34335;51.566;6.994;2023-01-30T09:30:24;101014.44;;;5.23;100.00
48553;BME280;34335;51.566;6.994;2023-01-30T09:32:50;101022.41;;;5.33;100.00
48553;BME280;34335;51.566;6.994;2023-01-30T09:35:15;101026.06;;;5.42;100.00
48553;BME280;34335;51.566;6.994;2023-01-30T09:37:51;101026.78;;;5.37;100.00
48553;BME280;34335;51.566;6.994;2023-01-30T09:40:22;101021.81;;;5.43;100.00
48553;BME280;34335;51.566;6.994;2023-01-30T09:48:32;101043.06;;;5.34;100.00
48553;BME280;34335;51.566;6.994;2023-01-30T09:51:21;101053.25;;;5.29;100.00
48553;BME280;34335;51.566;6.994;2023-01-30T09:54:06;101040.28;;;5.26;100.00
48553;BME280;34335;51.566;6.994;2023-01-30T09:56:35;101070.47;;;5.30;100.00
48553;BME280;34335;51.566;6.994;2023-01-30T09:59:02;101054.19;;;5.32;100.00
48553;BME280;34335;51.566;6.994;2023-01-30T10:04:17;101056.94;;;5.39;100.00
48553;BME280;34335;51.566;6.994;2023-01-30T10:07:01;101049.41;;;5.47;100.00
48553;BME280;34335;51.566;6.994;2023-01-30T10:09:40;101059.88;;;5.53;100.00
48553;BME280;34335;51.566;6.994;2023-01-30T10:17:50;101062.50;;;5.55;100.00
48553;BME280;34335;51.566;6.994;2023-01-30T10:20:30;101063.44;;;5.58;100.00
48553;BME280;34335;51.566;6.994;2023-01-30T10:23:21;101059.84;;;5.52;100.00
48553;BME280;34335;51.566;6.994;2023-01-30T10:25:53;101046.81;;;5.47;100.00
48553;BME280;34335;51.566;6.994;2023-01-30T10:28:32;101057.22;;;5.50;100.00
48553;BME280;34335;51.566;6.994;2023-01-30T10:31:14;101041.78;;;5.52;100.00
48553;BME280;34335;51.566;6.994;2023-01-30T10:33:51;101045.19;;;5.51;100.00
48553;BME280;34335;51.566;6.994;2023-01-30T10:38:57;101043.56;;;5.54;100.00
48553;BME280;34335;51.566;6.994;2023-01-30T10:41:54;101035.81;;;5.54;100.00
48553;BME280;34335;51.566;6.994;2023-01-30T10:44:22;101041.81;;;5.53;100.00
48553;BME280;34335;51.566;6.994;2023-01-30T10:49:40;101073.88;;;5.63;100.00
48553;BME280;34335;51.566;6.994;2023-01-30T10:52:40;101058.41;;;5.63;100.00
48553;BME280;34335;51.566;6.994;2023-01-30T10:55:38;101069.69;;;5.67;100.00
48553;BME280;34335;51.566;6.994;2023-01-30T10:58:22;101069.91;;;5.76;100.00
48553;BME280;34335;51.566;6.994;2023-01-30T11:01:05;101059.88;;;5.88;100.00
48553;BME280;34335;51.566;6.994;2023-01-30T11:06:14;101076.84;;;5.78;100.00
48553;BME280;34335;51.566;6.994;2023-01-30T11:08:41;101061.44;;;5.82;100.00
48553;BME280;34335;51.566;6.994;2023-01-30T11:11:46;101057.88;;;5.76;100.00
48553;BME280;34335;51.566;6.994;2023-01-30T11:14:13;101061.31;;;5.77;100.00
48553;BME280;34335;51.566;6.994;2023-01-30T11:19:08;101071.75;;;5.80;100.00
48553;BME280;34335;51.566;6.994;2023-01-30T11:21:34;101070.13;;;5.85;100.00
48553;BME280;34335;51.566;6.994;2023-01-30T11:24:12;101072.72;;;5.85;100.00
48553;BME280;34335;51.566;6.994;2023-01-30T11:26:38;101063.38;;;5.90;100.00
48553;BME280;34335;51.566;6.994;2023-01-30T11:29:28;101053.81;;;5.86;100.00
48553;BME280;34335;51.566;6.994;2023-01-30T11:31:54;101065.00;;;5.87;100.00
48553;BME280;34335;51.566;6.994;2023-01-30T11:34:22;101073.00;;;5.98;100.00
48553;BME280;34335;51.566;6.994;2023-01-30T11:36:48;101070.34;;;5.95;100.00
48553;BME280;34335;51.566;6.994;2023-01-30T11:44:31;101080.47;;;5.52;100.00
48553;BME280;34335;51.566;6.994;2023-01-30T11:46:58;101095.97;;;5.52;100.00
48553;BME280;34335;51.566;6.994;2023-01-30T11:49:30;101087.50;;;5.57;100.00
48553;BME280;34335;51.566;6.994;2023-01-30T11:51:58;101091.94;;;5.61;100.00
48553;BME280;34335;51.566;6.994;2023-01-30T11:54:33;101077.44;;;5.68;100.00
48553;BME280;34335;51.566;6.994;2023-01-30T11:57:03;101084.47;;;5.74;100.00
48553;BME280;34335;51.566;6.994;2023-01-30T11:59:31;101080.44;;;5.84;100.00
48553;BME280;34335;51.566;6.994;2023-01-30T12:02:14;101075.28;;;5.85;100.00
48553;BME280;34335;51.566;6.994;2023-01-30T12:04:44;101087.41;;;5.88;100.00
48553;BME280;34335;51.566;6.994;2023-01-30T12:07:18;101077.16;;;5.91;100.00
48553;BME280;34335;51.566;6.994;2023-01-30T12:09:44;101074.69;;;5.96;100.00
48553;BME280;34335;51.566;6.994;2023-01-30T12:12:32;101082.56;;;6.00;100.00
48553;BME280;34335;51.566;6.994;2023-01-30T12:15:24;101079.94;;;5.99;100.00
48553;BME280;34335;51.566;6.994;2023-01-30T12:20:28;101079.97;;;6.00;100.00
48553;BME280;34335;51.566;6.994;2023-01-30T12:25:37;101074.34;;;6.17;100.00
48553;BME280;34335;51.566;6.994;2023-01-30T12:28:13;101074.44;;;6.21;100.00
48553;BME280;34335;51.566;6.994;2023-01-30T12:30:52;101066.75;;;6.23;100.00
48553;BME280;34335;51.566;6.994;2023-01-30T12:33:21;101090.13;;;6.29;100.00
48553;BME280;34335;51.566;6.994;2023-01-30T12:35:48;101087.84;;;6.43;100.00
48553;BME280;34335;51.566;6.994;2023-01-30T12:41:21;101070.47;;;6.36;100.00
48553;BME280;34335;51.566;6.994;2023-01-30T12:46:36;101070.59;;;6.42;100.00
48553;BME280;34335;51.566;6.994;2023-01-30T12:54:54;101101.03;;;6.55;100.00
48553;BME280;34335;51.566;6.994;2023-01-30T12:57:36;101091.63;;;6.58;100.00
48553;BME280;34335;51.566;6.994;2023-01-30T13:00:14;101097.13;;;6.75;100.00
48553;BME280;34335;51.566;6.994;2023-01-30T13:03:08;101102.09;;;6.65;100.00
48553;BME280;34335;51.566;6.994;2023-01-30T13:06:05;101103.31;;;6.81;100.00
48553;BME280;34335;51.566;6.994;2023-01-30T13:08:44;101096.94;;;7.08;100.00
48553;BME280;34335;51.566;6.994;2023-01-30T13:17:01;101108.72;;;6.92;100.00
48553;BME280;34335;51.566;6.994;2023-01-30T13:19:41;101103.31;;;6.81;100.00
48553;BME280;34335;51.566;6.994;2023-01-30T13:25:03;101125.63;;;6.78;100.00
48553;BME280;34335;51.566;6.994;2023-01-30T13:27:35;101146.41;;;6.81;100.00
48553;BME280;34335;51.566;6.994;2023-01-30T13:30:05;101133.28;;;6.73;100.00
48553;BME280;34335;51.566;6.994;2023-01-30T13:32:44;101129.94;;;6.77;100.00
48553;BME280;34335;51.566;6.994;2023-01-30T13:35:17;101129.94;;;6.77;100.00
48553;BME280;34335;51.566;6.994;2023-01-30T13:37:45;101144.75;;;6.86;100.00
48553;BME280;34335;51.566;6.994;2023-01-30T13:40:18;101130.25;;;6.93;100.00
48553;BME280;34335;51.566;6.994;2023-01-30T13:42:51;101145.56;;;6.82;100.00
48553;BME280;34335;51.566;6.994;2023-01-30T13:45:21;101147.97;;;7.15;100.00
48553;BME280;34335;51.566;6.994;2023-01-30T13:51:26;101145.22;;;7.52;100.00
48553;BME280;34335;51.566;6.994;2023-01-30T13:56:42;101155.91;;;7.25;100.00
48553;BME280;34335;51.566;6.994;2023-01-30T13:59:13;101170.53;;;7.23;100.00
48553;BME280;34335;51.566;6.994;2023-01-30T14:07:17;101170.16;;;7.47;100.00
48553;BME280;34335;51.566;6.994;2023-01-30T14:12:40;101180.63;;;7.12;100.00
48553;BME280;34335;51.566;6.994;2023-01-30T14:15:21;101190.88;;;7.06;100.00
48553;BME280;34335;51.566;6.994;2023-01-30T14:20:28;101183.91;;;7.01;100.00
48553;BME280;34335;51.566;6.994;2023-01-30T14:22:55;101190.09;;;7.10;100.00
48553;BME280;34335;51.566;6.994;2023-01-30T14:27:52;101210.63;;;7.02;100.00
48553;BME280;34335;51.566;6.994;2023-01-30T14:33:33;101194.41;;;6.71;100.00
48553;BME280;34335;51.566;6.994;2023-01-30T14:38:26;101209.97;;;6.73;100.00
48553;BME280;34335;51.566;6.994;2023-01-30T14:59:19;101265.38;;;6.84;100.00
48553;BME280;34335;51.566;6.994;2023-01-30T15:18:17;101300.84;;;6.90;100.00
48553;BME280;34335;51.566;6.994;2023-01-30T15:24:12;101301.13;;;7.02;100.00
48553;BME280;34335;51.566;6.994;2023-01-30T15:32:25;101318.31;;;6.63;100.00
48553;BME280;34335;51.566;6.994;2023-01-30T15:37:52;101327.78;;;6.63;100.00
48553;BME280;34335;51.566;6.994;2023-01-30T15:40:26;101331.03;;;6.55;100.00
48553;BME280;34335;51.566;6.994;2023-01-30T15:45:38;101333.78;;;6.62;100.00